sensor_id;sensor_type;location;lat;lon;timestamp;pressure;altitude;pressure_sealevel;temperature;humidity
29239;BME280;16267;48.194;11.546;2023-02-01T00:00:20;96482.19;;;3.89;72.41
29239;BME280;16267;48.194;11.546;2023-02-01T00:02:46;96489.13;;;3.94;72.29
29239;BME280;16267;48.194;11.546;2023-02-01T00:05:11;96488.44;;;3.97;72.19
29239;BME280;16267;48.194;11.546;2023-02-01T00:07:38;96486.03;;;3.92;72.16
29239;BME280;16267;48.194;11.546;2023-02-01T00:10:05;96483.31;;;3.88;72.10
29239;BME280;16267;48.194;11.546;2023-02-01T00:12:32;96473.78;;;3.87;72.19
29239;BME280;16267;48.194;11.546;2023-02-01T00:14:58;96491.00;;;3.93;72.09
29239;BME280;16267;48.194;11.546;2023-02-01T00:17:24;96486.38;;;3.90;71.70
29239;BME280;16267;48.194;11.546;2023-02-01T00:19:50;96485.69;;;3.93;72.01
29239;BME280;16267;48.194;11.546;2023-02-01T00:22:16;96487.94;;;3.91;71.78
29239;BME280;16267;48.194;11.546;2023-02-01T00:24:42;96491.16;;;4.00;71.57
29239;BME280;16267;48.194;11.546;2023-02-01T00:27:08;96481.38;;;4.05;71.60
29239;BME280;16267;48.194;11.546;2023-02-01T00:29:33;96485.53;;;4.02;71.55
29239;BME280;16267;48.194;11.546;2023-02-01T00:31:59;96480.09;;;3.98;71.67
29239;BME280;16267;48.194;11.546;2023-02-01T00:34:26;96473.78;;;4.03;71.78
29239;BME280;16267;48.194;11.546;2023-02-01T00:36:54;96479.59;;;4.09;72.09
29239;BME280;16267;48.194;11.546;2023-02-01T00:39:31;96470.50;;;4.10;71.80
29239;BME280;16267;48.194;11.546;2023-02-01T00:41:56;96474.28;;;4.09;72.35
29239;BME280;16267;48.194;11.546;2023-02-01T00:44:22;96470.09;;;4.08;72.91
29239;BME280;16267;48.194;11.546;2023-02-01T00:46:49;96468.72;;;3.98;73.75
29239;BME280;16267;48.194;11.546;2023-02-01T00:49:14;96476.25;;;3.96;74.63
29239;BME280;16267;48.194;11.546;2023-02-01T00:51:40;96463.34;;;3.94;75.51
29239;BME280;16267;48.194;11.546;2023-02-01T00:54:06;96468.78;;;4.01;75.77
29239;BME280;16267;48.194;11.546;2023-02-01T00:56:32;96459.13;;;3.93;77.31
29239;BME280;16267;48.194;11.546;2023-02-01T00:58:57;96459.91;;;3.94;77.54
29239;BME280;16267;48.194;11.546;2023-02-01T01:01:26;96457.25;;;3.94;77.68
29239;BME280;16267;48.194;11.546;2023-02-01T01:03:58;96458.09;;;3.98;77.67
29239;BME280;16267;48.194;11.546;2023-02-01T01:06:31;96463.47;;;4.01;76.96
29239;BME280;16267;48.194;11.546;2023-02-01T01:09:00;96464.28;;;4.02;76.78
29239;BME280;16267;48.194;11.546;2023-02-01T01:11:30;96465.28;;;3.97;77.06
29239;BME280;16267;48.194;11.546;2023-02-01T01:13:58;96462.28;;;3.99;77.57
29239;BME280;16267;48.194;11.546;2023-02-01T01:16:27;96455.38;;;3.94;77.45
29239;BME280;16267;48.194;11.546;2023-02-01T01:18:54;96454.31;;;3.99;77.65
29239;BME280;16267;48.194;11.546;2023-02-01T01:21:20;96447.31;;;3.91;77.71
29239;BME280;16267;48.194;11.546;2023-02-01T01:23:47;96450.50;;;3.80;78.19
29239;BME280;16267;48.194;11.546;2023-02-01T01:26:20;96455.88;;;3.84;78.40
29239;BME280;16267;48.194;11.546;2023-02-01T01:28:46;96455.97;;;3.88;78.70
29239;BME280;16267;48.194;11.546;2023-02-01T01:31:15;96453.72;;;3.90;78.43
29239;BME280;16267;48.194;11.546;2023-02-01T01:33:41;96454.34;;;3.83;78.37
29239;BME280;16267;48.194;11.546;2023-02-01T01:36:11;96454.09;;;3.88;78.89
29239;BME280;16267;48.194;11.546;2023-02-01T01:38:39;96443.53;;;3.92;78.22
29239;BME280;16267;48.194;11.546;2023-02-01T01:41:06;96447.22;;;3.87;78.83
29239;BME280;16267;48.194;11.546;2023-02-01T01:44:02;96440.72;;;3.85;79.05
29239;BME280;16267;48.194;11.546;2023-02-01T01:46:35;96442.28;;;3.86;79.12
29239;BME280;16267;48.194;11.546;2023-02-01T01:49:19;96424.28;;;3.79;79.44
29239;BME280;16267;48.194;11.546;2023-02-01T01:51:56;96426.44;;;3.73;80.46
29239;BME280;16267;48.194;11.546;2023-02-01T01:54:38;96420.78;;;3.75;80.63
29239;BME280;16267;48.194;11.546;2023-02-01T01:57:11;96414.97;;;3.69;81.48
29239;BME280;16267;48.194;11.546;2023-02-01T01:59:42;96420.84;;;3.63;81.96
29239;BME280;16267;48.194;11.546;2023-02-01T02:02:11;96412.91;;;3.63;82.15
29239;BME280;16267;48.194;11.546;2023-02-01T02:04:37;96409.84;;;3.61;82.80
29239;BME280;16267;48.194;11.546;2023-02-01T02:07:33;96406.50;;;3.64;82.37
29239;BME280;16267;48.194;11.546;2023-02-01T02:10:05;96408.22;;;3.56;83.60
29239;BME280;16267;48.194;11.546;2023-02-01T02:12:31;96417.19;;;3.51;83.65
29239;BME280;16267;48.194;11.546;2023-02-01T02:14:58;96405.28;;;3.61;82.96
29239;BME280;16267;48.194;11.546;2023-02-01T02:17:56;96413.25;;;3.61;82.89
29239;BME280;16267;48.194;11.546;2023-02-01T02:20:39;96420.28;;;3.69;83.17
29239;BME280;16267;48.194;11.546;2023-02-01T02:23:51;96426.09;;;3.75;82.49
29239;BME280;16267;48.194;11.546;2023-02-01T02:33:13;96430.06;;;3.49;84.83
29239;BME280;16267;48.194;11.546;2023-02-01T02:35:46;96430.19;;;3.56;84.72
29239;BME280;16267;48.194;11.546;2023-02-01T02:38:50;96430.81;;;3.50;84.81
29239;BME280;16267;48.194;11.546;2023-02-01T02:41:38;96426.03;;;3.55;84.97
29239;BME280;16267;48.194;11.546;2023-02-01T02:47:21;96421.22;;;3.61;84.28
29239;BME280;16267;48.194;11.546;2023-02-01T02:50:03;96416.00;;;3.65;83.78
29239;BME280;16267;48.194;11.546;2023-02-01T02:53:06;96412.66;;;3.68;83.92
29239;BME280;16267;48.194;11.546;2023-02-01T02:55:52;96408.03;;;3.65;83.90
29239;BME280;16267;48.194;11.546;2023-02-01T02:58:37;96407.84;;;3.73;83.91
29239;BME280;16267;48.194;11.546;2023-02-01T03:01:21;96397.91;;;3.70;83.93
29239;BME280;16267;48.194;11.546;2023-02-01T03:04:06;96408.88;;;3.69;83.59
29239;BME280;16267;48.194;11.546;2023-02-01T03:06:37;96397.91;;;3.70;84.29
29239;BME280;16267;48.194;11.546;2023-02-01T03:09:08;96393.22;;;3.64;84.02
29239;BME280;16267;48.194;11.546;2023-02-01T03:11:36;96389.00;;;3.63;84.05
29239;BME280;16267;48.194;11.546;2023-02-01T03:14:23;96389.50;;;3.68;84.07
29239;BME280;16267;48.194;11.546;2023-02-01T03:16:58;96391.06;;;3.69;83.73
29239;BME280;16267;48.194;11.546;2023-02-01T03:19:34;96384.63;;;3.70;84.20
29239;BME280;16267;48.194;11.546;2023-02-01T03:22:07;96389.25;;;3.73;83.48
29239;BME280;16267;48.194;11.546;2023-02-01T03:24:51;96385.06;;;3.72;83.12
29239;BME280;16267;48.194;11.546;2023-02-01T03:27:43;96395.00;;;3.75;82.89
29239;BME280;16267;48.194;11.546;2023-02-01T03:30:29;96392.69;;;3.74;82.70
29239;BME280;16267;48.194;11.546;2023-02-01T03:33:00;96393.03;;;3.72;82.88
29239;BME280;16267;48.194;11.546;2023-02-01T03:38:27;96373.44;;;3.77;82.99
29239;BME280;16267;48.194;11.546;2023-02-01T03:41:21;96367.31;;;3.76;82.01
29239;BME280;16267;48.194;11.546;2023-02-01T03:47:25;96368.22;;;3.65;82.32
29239;BME280;16267;48.194;11.546;2023-02-01T03:50:00;96374.09;;;3.74;82.05
29239;BME280;16267;48.194;11.546;2023-02-01T03:52:40;96367.25;;;3.73;81.87
29239;BME280;16267;48.194;11.546;2023-02-01T03:55:09;96363.75;;;3.69;81.88
29239;BME280;16267;48.194;11.546;2023-02-01T03:57:41;96370.66;;;3.73;81.92
29239;BME280;16267;48.194;11.546;2023-02-01T04:00:19;96360.59;;;3.63;82.09
29239;BME280;16267;48.194;11.546;2023-02-01T04:02:45;96365.56;;;3.65;82.11
29239;BME280;16267;48.194;11.546;2023-02-01T04:05:11;96363.66;;;3.65;81.53
29239;BME280;16267;48.194;11.546;2023-02-01T04:07:37;96364.78;;;3.64;81.77
29239;BME280;16267;48.194;11.546;2023-02-01T04:10:03;96363.41;;;3.70;81.38
29239;BME280;16267;48.194;11.546;2023-02-01T04:12:29;96362.63;;;3.70;82.07
29239;BME280;16267;48.194;11.546;2023-02-01T04:14:55;96357.41;;;3.73;81.29
29239;BME280;16267;48.194;11.546;2023-02-01T04:17:21;96363.53;;;3.58;81.70
29239;BME280;16267;48.194;11.546;2023-02-01T04:19:46;96363.31;;;3.67;81.50
29239;BME280;16267;48.194;11.546;2023-02-01T04:22:12;96365.91;;;3.63;81.43
29239;BME280;16267;48.194;11.546;2023-02-01T04:24:38;96361.69;;;3.62;81.73
29239;BME280;16267;48.194;11.546;2023-02-01T04:27:04;96355.28;;;3.63;81.84
29239;BME280;16267;48.194;11.546;2023-02-01T04:29:30;96360.50;;;3.60;81.86
29239;BME280;16267;48.194;11.546;2023-02-01T04:31:55;96359.03;;;3.62;81.53
29239;BME280;16267;48.194;11.546;2023-02-01T04:34:21;96350.59;;;3.56;81.69
29239;BME280;16267;48.194;11.546;2023-02-01T04:36:48;96351.72;;;3.55;81.31
29239;BME280;16267;48.194;11.546;2023-02-01T04:39:14;96359.22;;;3.53;81.82
29239;BME280;16267;48.194;11.546;2023-02-01T04:41:40;96366.50;;;3.56;81.38
29239;BME280;16267;48.194;11.546;2023-02-01T04:44:05;96365.75;;;3.56;81.13
29239;BME280;16267;48.194;11.546;2023-02-01T04:46:31;96361.56;;;3.55;81.27
29239;BME280;16267;48.194;11.546;2023-02-01T04:48:57;96373.25;;;3.54;81.08
29239;BME280;16267;48.194;11.546;2023-02-01T04:51:22;96364.63;;;3.57;81.85
29239;BME280;16267;48.194;11.546;2023-02-01T04:53:48;96365.22;;;3.50;80.93
29239;BME280;16267;48.194;11.546;2023-02-01T04:56:14;96359.16;;;3.50;81.12
29239;BME280;16267;48.194;11.546;2023-02-01T04:58:40;96357.34;;;3.54;81.27
29239;BME280;16267;48.194;11.546;2023-02-01T05:01:06;96366.44;;;3.53;80.73
29239;BME280;16267;48.194;11.546;2023-02-01T05:03:33;96364.63;;;3.57;80.65
29239;BME280;16267;48.194;11.546;2023-02-01T05:06:00;96365.94;;;3.47;80.80
29239;BME280;16267;48.194;11.546;2023-02-01T05:08:26;96369.16;;;3.56;80.70
29239;BME280;16267;48.194;11.546;2023-02-01T05:10:53;96369.78;;;3.50;80.49
29239;BME280;16267;48.194;11.546;2023-02-01T05:13:18;96376.34;;;3.56;81.03
29239;BME280;16267;48.194;11.546;2023-02-01T05:16:03;96380.53;;;3.57;80.56
29239;BME280;16267;48.194;11.546;2023-02-01T05:18:29;96382.94;;;3.62;80.18
29239;BME280;16267;48.194;11.546;2023-02-01T05:20:55;96362.13;;;3.64;79.74
29239;BME280;16267;48.194;11.546;2023-02-01T05:23:21;96370.34;;;3.59;80.07
29239;BME280;16267;48.194;11.546;2023-02-01T05:25:47;96376.88;;;3.62;80.22
29239;BME280;16267;48.194;11.546;2023-02-01T05:28:12;96374.91;;;3.58;80.13
29239;BME280;16267;48.194;11.546;2023-02-01T05:30:38;96384.06;;;3.61;79.94
29239;BME280;16267;48.194;11.546;2023-02-01T05:33:04;96387.03;;;3.60;79.71
29239;BME280;16267;48.194;11.546;2023-02-01T05:35:30;96385.75;;;3.69;79.96
29239;BME280;16267;48.194;11.546;2023-02-01T05:37:56;96380.53;;;3.73;80.04
29239;BME280;16267;48.194;11.546;2023-02-01T05:40:22;96381.03;;;3.63;79.34
29239;BME280;16267;48.194;11.546;2023-02-01T05:42:47;96369.53;;;3.55;79.62
29239;BME280;16267;48.194;11.546;2023-02-01T05:45:13;96371.88;;;3.60;79.76
29239;BME280;16267;48.194;11.546;2023-02-01T05:47:39;96371.97;;;3.64;79.68
29239;BME280;16267;48.194;11.546;2023-02-01T05:50:06;96367.78;;;3.63;79.52
29239;BME280;16267;48.194;11.546;2023-02-01T05:52:32;96370.44;;;3.63;79.23
29239;BME280;16267;48.194;11.546;2023-02-01T05:54:58;96362.47;;;3.63;79.16
29239;BME280;16267;48.194;11.546;2023-02-01T05:57:23;96366.31;;;3.65;79.56
29239;BME280;16267;48.194;11.546;2023-02-01T05:59:49;96364.03;;;3.64;79.04
29239;BME280;16267;48.194;11.546;2023-02-01T06:02:16;96360.59;;;3.63;79.22
29239;BME280;16267;48.194;11.546;2023-02-01T06:04:42;96363.84;;;3.56;78.97
29239;BME280;16267;48.194;11.546;2023-02-01T06:07:08;96354.00;;;3.57;79.54
29239;BME280;16267;48.194;11.546;2023-02-01T06:09:36;96357.16;;;3.63;79.62
29239;BME280;16267;48.194;11.546;2023-02-01T06:12:03;96346.53;;;3.63;79.64
29239;BME280;16267;48.194;11.546;2023-02-01T06:14:29;96348.44;;;3.62;79.26
29239;BME280;16267;48.194;11.546;2023-02-01T06:16:55;96334.41;;;3.62;79.05
29239;BME280;16267;48.194;11.546;2023-02-01T06:19:22;96342.84;;;3.67;79.32
29239;BME280;16267;48.194;11.546;2023-02-01T06:21:48;96352.53;;;3.60;79.38
29239;BME280;16267;48.194;11.546;2023-02-01T06:24:15;96352.22;;;3.61;79.28
29239;BME280;16267;48.194;11.546;2023-02-01T06:26:41;96353.41;;;3.64;78.81
29239;BME280;16267;48.194;11.546;2023-02-01T06:29:09;96354.59;;;3.66;78.91
29239;BME280;16267;48.194;11.546;2023-02-01T06:31:35;96358.09;;;3.70;78.88
29239;BME280;16267;48.194;11.546;2023-02-01T06:34:01;96337.88;;;3.66;79.00
29239;BME280;16267;48.194;11.546;2023-02-01T06:36:29;96342.28;;;3.58;79.00
29239;BME280;16267;48.194;11.546;2023-02-01T06:38:56;96355.56;;;3.58;78.95
29239;BME280;16267;48.194;11.546;2023-02-01T06:41:23;96353.66;;;3.58;78.99
29239;BME280;16267;48.194;11.546;2023-02-01T06:43:49;96346.13;;;3.61;78.87
29239;BME280;16267;48.194;11.546;2023-02-01T06:46:15;96348.16;;;3.67;78.71
29239;BME280;16267;48.194;11.546;2023-02-01T06:48:41;96350.06;;;3.67;78.31
29239;BME280;16267;48.194;11.546;2023-02-01T06:51:27;96333.00;;;3.68;78.64
29239;BME280;16267;48.194;11.546;2023-02-01T06:53:55;96330.78;;;3.70;78.46
29239;BME280;16267;48.194;11.546;2023-02-01T06:56:21;96326.94;;;3.67;78.69
29239;BME280;16267;48.194;11.546;2023-02-01T06:58:47;96328.88;;;3.70;78.27
29239;BME280;16267;48.194;11.546;2023-02-01T07:01:14;96333.00;;;3.68;78.85
29239;BME280;16267;48.194;11.546;2023-02-01T07:03:40;96328.97;;;3.74;78.42
29239;BME280;16267;48.194;11.546;2023-02-01T07:06:07;96340.00;;;3.76;78.25
29239;BME280;16267;48.194;11.546;2023-02-01T07:08:35;96339.69;;;3.77;77.67
29239;BME280;16267;48.194;11.546;2023-02-01T07:11:08;96343.22;;;3.85;78.09
29239;BME280;16267;48.194;11.546;2023-02-01T07:13:35;96334.59;;;3.88;77.30
29239;BME280;16267;48.194;11.546;2023-02-01T07:16:03;96333.47;;;3.89;77.19
29239;BME280;16267;48.194;11.546;2023-02-01T07:18:30;96330.97;;;3.96;76.73
29239;BME280;16267;48.194;11.546;2023-02-01T07:20:56;96339.91;;;3.88;76.96
29239;BME280;16267;48.194;11.546;2023-02-01T07:23:23;96316.13;;;3.95;77.02
29239;BME280;16267;48.194;11.546;2023-02-01T07:25:57;96321.31;;;3.88;76.54
29239;BME280;16267;48.194;11.546;2023-02-01T07:28:24;96312.44;;;3.80;76.39
29239;BME280;16267;48.194;11.546;2023-02-01T07:30:51;96330.38;;;3.87;76.70
29239;BME280;16267;48.194;11.546;2023-02-01T07:33:22;96322.84;;;3.89;76.11
29239;BME280;16267;48.194;11.546;2023-02-01T07:35:49;96328.50;;;3.88;75.53
29239;BME280;16267;48.194;11.546;2023-02-01T07:38:16;96318.72;;;3.92;75.07
29239;BME280;16267;48.194;11.546;2023-02-01T07:40:42;96324.09;;;3.95;74.61
29239;BME280;16267;48.194;11.546;2023-02-01T07:43:09;96321.88;;;3.97;74.80
29239;BME280;16267;48.194;11.546;2023-02-01T07:45:36;96329.56;;;4.02;74.77
29239;BME280;16267;48.194;11.546;2023-02-01T07:48:02;96321.72;;;3.90;74.80
29239;BME280;16267;48.194;11.546;2023-02-01T07:50:28;96327.47;;;3.92;75.23
29239;BME280;16267;48.194;11.546;2023-02-01T07:52:54;96329.41;;;3.95;75.42
29239;BME280;16267;48.194;11.546;2023-02-01T07:55:21;96338.50;;;3.94;75.05
29239;BME280;16267;48.194;11.546;2023-02-01T07:57:46;96351.22;;;4.05;74.64
29239;BME280;16267;48.194;11.546;2023-02-01T08:00:13;96341.94;;;4.14;74.83
29239;BME280;16267;48.194;11.546;2023-02-01T08:02:59;96363.47;;;4.09;74.22
29239;BME280;16267;48.194;11.546;2023-02-01T08:05:25;96351.66;;;4.07;74.38
29239;BME280;16267;48.194;11.546;2023-02-01T08:07:51;96362.47;;;3.98;73.67
29239;BME280;16267;48.194;11.546;2023-02-01T08:10:18;96363.03;;;4.07;74.34
29239;BME280;16267;48.194;11.546;2023-02-01T08:12:44;96360.75;;;4.06;74.00
29239;BME280;16267;48.194;11.546;2023-02-01T08:15:15;96371.00;;;4.07;73.51
29239;BME280;16267;48.194;11.546;2023-02-01T08:17:47;96369.72;;;4.17;73.62
29239;BME280;16267;48.194;11.546;2023-02-01T08:20:13;96371.34;;;4.21;72.97
29239;BME280;16267;48.194;11.546;2023-02-01T08:22:39;96365.72;;;4.27;72.57
29239;BME280;16267;48.194;11.546;2023-02-01T08:25:06;96369.88;;;4.24;71.94
29239;BME280;16267;48.194;11.546;2023-02-01T08:27:36;96372.84;;;4.22;72.30
29239;BME280;16267;48.194;11.546;2023-02-01T08:30:03;96378.25;;;4.26;71.50
29239;BME280;16267;48.194;11.546;2023-02-01T08:32:29;96379.78;;;4.27;71.41
29239;BME280;16267;48.194;11.546;2023-02-01T08:34:54;96376.44;;;4.30;71.06
29239;BME280;16267;48.194;11.546;2023-02-01T08:37:20;96387.47;;;4.32;70.98
29239;BME280;16267;48.194;11.546;2023-02-01T08:39:46;96381.47;;;4.35;71.51
29239;BME280;16267;48.194;11.546;2023-02-01T08:42:12;96368.47;;;4.30;70.90
29239;BME280;16267;48.194;11.546;2023-02-01T08:44:57;96372.00;;;4.38;70.51
29239;BME280;16267;48.194;11.546;2023-02-01T08:47:23;96377.31;;;4.38;70.15
29239;BME280;16267;48.194;11.546;2023-02-01T08:49:49;96368.38;;;4.46;70.03
29239;BME280;16267;48.194;11.546;2023-02-01T08:52:14;96373.78;;;4.50;69.28
29239;BME280;16267;48.194;11.546;2023-02-01T08:54:40;96370.34;;;4.49;68.68
29239;BME280;16267;48.194;11.546;2023-02-01T08:57:07;96362.06;;;4.54;68.68
29239;BME280;16267;48.194;11.546;2023-02-01T08:59:33;96369.66;;;4.52;68.97
29239;BME280;16267;48.194;11.546;2023-02-01T09:01:59;96366.06;;;4.64;69.22
29239;BME280;16267;48.194;11.546;2023-02-01T09:04:24;96368.03;;;4.67;68.12
29239;BME280;16267;48.194;11.546;2023-02-01T09:06:50;96374.97;;;4.72;68.17
29239;BME280;16267;48.194;11.546;2023-02-01T09:09:16;96389.13;;;4.79;67.58
29239;BME280;16267;48.194;11.546;2023-02-01T09:11:41;96395.84;;;4.73;66.53
29239;BME280;16267;48.194;11.546;2023-02-01T09:14:07;96377.09;;;4.85;67.18
29239;BME280;16267;48.194;11.546;2023-02-01T09:16:33;96372.41;;;4.79;65.90
29239;BME280;16267;48.194;11.546;2023-02-01T09:18:58;96375.97;;;4.86;66.67
29239;BME280;16267;48.194;11.546;2023-02-01T09:21:24;96367.28;;;4.89;66.49
29239;BME280;16267;48.194;11.546;2023-02-01T09:23:51;96362.69;;;4.86;66.04
29239;BME280;16267;48.194;11.546;2023-02-01T09:26:17;96359.78;;;4.95;66.29
29239;BME280;16267;48.194;11.546;2023-02-01T09:28:44;96358.25;;;4.94;66.20
29239;BME280;16267;48.194;11.546;2023-02-01T09:31:10;96365.16;;;4.99;66.57
29239;BME280;16267;48.194;11.546;2023-02-01T09:33:35;96372.81;;;5.00;66.32
29239;BME280;16267;48.194;11.546;2023-02-01T09:36:04;96380.78;;;5.00;66.45
29239;BME280;16267;48.194;11.546;2023-02-01T09:38:31;96381.59;;;5.04;66.65
29239;BME280;16267;48.194;11.546;2023-02-01T09:40:58;96375.22;;;5.09;66.51
29239;BME280;16267;48.194;11.546;2023-02-01T09:43:57;96373.50;;;5.20;66.49
29239;BME280;16267;48.194;11.546;2023-02-01T09:46:30;96382.09;;;5.10;66.15
29239;BME280;16267;48.194;11.546;2023-02-01T09:49:01;96389.47;;;5.20;65.46
29239;BME280;16267;48.194;11.546;2023-02-01T09:51:39;96391.44;;;5.23;65.56
29239;BME280;16267;48.194;11.546;2023-02-01T09:54:40;96385.38;;;5.26;65.37
29239;BME280;16267;48.194;11.546;2023-02-01T09:57:20;96386.47;;;5.22;65.72
29239;BME280;16267;48.194;11.546;2023-02-01T09:59:54;96398.00;;;5.29;65.99
29239;BME280;16267;48.194;11.546;2023-02-01T10:02:26;96395.22;;;5.22;65.45
29239;BME280;16267;48.194;11.546;2023-02-01T10:04:57;96406.69;;;5.26;65.08
29239;BME280;16267;48.194;11.546;2023-02-01T10:10:33;96392.28;;;5.27;65.59
29239;BME280;16267;48.194;11.546;2023-02-01T10:14:26;96400.13;;;5.20;65.23
29239;BME280;16267;48.194;11.546;2023-02-01T10:19:53;96410.66;;;5.13;65.83
29239;BME280;16267;48.194;11.546;2023-02-01T10:28:14;96425.25;;;5.23;66.33
29239;BME280;16267;48.194;11.546;2023-02-01T10:30:46;96419.03;;;5.15;65.85
29239;BME280;16267;48.194;11.546;2023-02-01T10:33:56;96419.34;;;5.10;66.02
29239;BME280;16267;48.194;11.546;2023-02-01T10:36:32;96428.50;;;5.12;66.65
29239;BME280;16267;48.194;11.546;2023-02-01T10:39:03;96416.31;;;5.11;65.81
29239;BME280;16267;48.194;11.546;2023-02-01T10:41:36;96423.34;;;5.23;66.23
29239;BME280;16267;48.194;11.546;2023-02-01T10:44:13;96418.13;;;5.27;66.11
29239;BME280;16267;48.194;11.546;2023-02-01T10:46:39;96421.97;;;5.29;66.49
29239;BME280;16267;48.194;11.546;2023-02-01T10:49:16;96419.47;;;5.40;66.01
29239;BME280;16267;48.194;11.546;2023-02-01T10:51:59;96415.84;;;5.29;65.73
29239;BME280;16267;48.194;11.546;2023-02-01T10:54:37;96414.09;;;5.36;65.63
29239;BME280;16267;48.194;11.546;2023-02-01T10:57:08;96419.69;;;5.31;65.63
29239;BME280;16267;48.194;11.546;2023-02-01T10:59:34;96421.31;;;5.36;65.64
29239;BME280;16267;48.194;11.546;2023-02-01T11:02:32;96422.44;;;5.35;65.56
29239;BME280;16267;48.194;11.546;2023-02-01T11:05:09;96426.91;;;5.31;65.03
29239;BME280;16267;48.194;11.546;2023-02-01T11:07:39;96425.22;;;5.42;65.54
29239;BME280;16267;48.194;11.546;2023-02-01T11:10:40;96424.56;;;5.49;65.47
29239;BME280;16267;48.194;11.546;2023-02-01T11:13:16;96438.66;;;5.49;64.79
29239;BME280;16267;48.194;11.546;2023-02-01T11:15:47;96433.63;;;5.44;65.14
29239;BME280;16267;48.194;11.546;2023-02-01T11:18:30;96431.81;;;5.29;65.21
29239;BME280;16267;48.194;11.546;2023-02-01T11:20:56;96423.13;;;5.32;65.83
29239;BME280;16267;48.194;11.546;2023-02-01T11:23:25;96425.91;;;5.39;66.09
29239;BME280;16267;48.194;11.546;2023-02-01T11:25:59;96427.75;;;5.35;65.78
29239;BME280;16267;48.194;11.546;2023-02-01T11:28:31;96426.25;;;5.37;65.50
29239;BME280;16267;48.194;11.546;2023-02-01T11:31:01;96416.28;;;5.31;65.51
29239;BME280;16267;48.194;11.546;2023-02-01T11:33:32;96426.34;;;5.41;65.93
29239;BME280;16267;48.194;11.546;2023-02-01T11:36:13;96424.41;;;5.38;65.67
29239;BME280;16267;48.194;11.546;2023-02-01T11:38:40;96422.06;;;5.36;65.57
29239;BME280;16267;48.194;11.546;2023-02-01T11:41:24;96421.41;;;5.20;65.82
29239;BME280;16267;48.194;11.546;2023-02-01T11:46:23;96413.59;;;5.08;66.50
29239;BME280;16267;48.194;11.546;2023-02-01T11:48:53;96421.50;;;5.04;66.39
29239;BME280;16267;48.194;11.546;2023-02-01T11:51:42;96419.69;;;5.08;66.63
29239;BME280;16267;48.194;11.546;2023-02-01T11:54:29;96404.72;;;5.00;66.95
29239;BME280;16267;48.194;11.546;2023-02-01T11:57:47;96404.78;;;5.04;67.81
29239;BME280;16267;48.194;11.546;2023-02-01T12:06:18;96399.41;;;5.00;67.80
29239;BME280;16267;48.194;11.546;2023-02-01T12:26:56;96392.94;;;5.01;67.90
29239;BME280;16267;48.194;11.546;2023-02-01T12:38:46;96373.03;;;4.91;67.70
29239;BME280;16267;48.194;11.546;2023-02-01T12:44:12;96384.00;;;4.90;67.03
29239;BME280;16267;48.194;11.546;2023-02-01T12:46:54;96378.81;;;4.97;67.53
29239;BME280;16267;48.194;11.546;2023-02-01T12:49:50;96369.94;;;4.89;67.13
29239;BME280;16267;48.194;11.546;2023-02-01T12:52:53;96364.34;;;4.95;66.98
29239;BME280;16267;48.194;11.546;2023-02-01T12:55:38;96356.06;;;5.00;66.78
29239;BME280;16267;48.194;11.546;2023-02-01T12:58:17;96354.88;;;4.97;66.31
29239;BME280;16267;48.194;11.546;2023-02-01T13:04:27;96343.47;;;4.97;65.65
29239;BME280;16267;48.194;11.546;2023-02-01T13:10:46;96342.06;;;5.03;64.69
29239;BME280;16267;48.194;11.546;2023-02-01T13:13:25;96340.88;;;5.00;65.01
29239;BME280;16267;48.194;11.546;2023-02-01T13:16:38;96331.00;;;5.01;64.74
29239;BME280;16267;48.194;11.546;2023-02-01T13:21:40;96342.59;;;5.12;65.29
29239;BME280;16267;48.194;11.546;2023-02-01T13:24:37;96337.72;;;5.18;65.64
29239;BME280;16267;48.194;11.546;2023-02-01T13:27:01;96339.69;;;5.21;65.30
29239;BME280;16267;48.194;11.546;2023-02-01T13:29:28;96329.41;;;5.19;65.35
29239;BME280;16267;48.194;11.546;2023-02-01T13:41:35;96347.25;;;4.96;67.60
29239;BME280;16267;48.194;11.546;2023-02-01T13:44:32;96349.16;;;4.95;67.90
29239;BME280;16267;48.194;11.546;2023-02-01T13:47:02;96349.63;;;5.01;68.51
29239;BME280;16267;48.194;11.546;2023-02-01T13:49:38;96336.06;;;5.09;68.09
29239;BME280;16267;48.194;11.546;2023-02-01T13:54:46;96346.25;;;5.04;69.32
29239;BME280;16267;48.194;11.546;2023-02-01T13:57:39;96351.66;;;5.07;69.35
29239;BME280;16267;48.194;11.546;2023-02-01T14:00:32;96347.66;;;5.21;70.01
29239;BME280;16267;48.194;11.546;2023-02-01T14:10:55;96347.28;;;5.19;69.53
29239;BME280;16267;48.194;11.546;2023-02-01T14:21:33;96339.38;;;5.26;69.33
29239;BME280;16267;48.194;11.546;2023-02-01T14:26:54;96340.44;;;4.98;69.93
29239;BME280;16267;48.194;11.546;2023-02-01T14:29:33;96350.69;;;4.96;69.23
29239;BME280;16267;48.194;11.546;2023-02-01T14:32:34;96341.28;;;5.02;69.45
29239;BME280;16267;48.194;11.546;2023-02-01T14:35:17;96357.97;;;4.99;69.61
29239;BME280;16267;48.194;11.546;2023-02-01T14:37:45;96351.09;;;4.98;69.14
29239;BME280;16267;48.194;11.546;2023-02-01T14:43:07;96358.69;;;4.96;68.25
29239;BME280;16267;48.194;11.546;2023-02-01T14:55:58;96346.91;;;4.97;66.63
29239;BME280;16267;48.194;11.546;2023-02-01T15:01:36;96345.47;;;5.03;65.92
29239;BME280;16267;48.194;11.546;2023-02-01T15:04:16;96355.69;;;5.01;65.23
29239;BME280;16267;48.194;11.546;2023-02-01T15:07:07;96345.47;;;5.03;65.35
29239;BME280;16267;48.194;11.546;2023-02-01T15:09:38;96363.75;;;5.05;65.32
29239;BME280;16267;48.194;11.546;2023-02-01T15:14:46;96360.72;;;5.06;66.17
29239;BME280;16267;48.194;11.546;2023-02-01T15:17:26;96357.59;;;5.01;65.84
29239;BME280;16267;48.194;11.546;2023-02-01T15:19:54;96360.31;;;4.81;65.81
29239;BME280;16267;48.194;11.546;2023-02-01T15:22:21;96361.19;;;4.89;66.42
29239;BME280;16267;48.194;11.546;2023-02-01T15:24:54;96351.28;;;4.86;66.42
29239;BME280;16267;48.194;11.546;2023-02-01T15:27:20;96356.59;;;4.86;66.24
29239;BME280;16267;48.194;11.546;2023-02-01T15:29:46;96354.00;;;4.89;65.79
29239;BME280;16267;48.194;11.546;2023-02-01T15:32:40;96355.22;;;4.96;66.01